Time;durP1;ratioP1;P1;durP2;ratioP2;P2;SDS_P1;SDS_P2;PMS_P1;PMS_P2;Temp;Humidity;BMP_temperature;BMP_pressure;BME280_temperature;BME280_humidity;BME280_pressure;Samples;Min_cycle;Max_cycle;Signal;HPM_P1;HPM_P2
2023/07/18 00:01:15;;;;;;;1.30;0.55;;;;;;;24.17;41.89;101157.09;4515510;28;20033;-61
2023/07/18 00:03:28;;;;;;;0.45;0.40;;;;;;;24.20;41.71;101161.25;4517134;28;20135;-60
2023/07/18 00:05:40;;;;;;;0.80;0.40;;;;;;;24.13;41.89;101150.41;4516355;28;20038;-62
2023/07/18 00:07:51;;;;;;;0.80;0.43;;;;;;;24.19;41.79;101157.56;4517598;28;20068;-60
2023/07/18 00:10:02;;;;;;;0.57;0.40;;;;;;;24.17;42.21;101157.09;4512989;28;20034;-60
2023/07/18 00:12:12;;;;;;;0.40;0.40;;;;;;;24.13;41.59;101149.56;4516785;28;20049;-60
2023/07/18 00:14:23;;;;;;;0.40;0.40;;;;;;;24.15;41.08;101152.94;4518163;28;20099;-61
2023/07/18 00:16:33;;;;;;;0.88;0.30;;;;;;;24.17;42.03;101162.84;4518175;28;20033;-61
2023/07/18 00:18:44;;;;;;;0.70;0.47;;;;;;;24.18;41.49;101155.88;4517379;28;20347;-62
2023/07/18 00:20:54;;;;;;;1.08;0.50;;;;;;;24.14;41.28;101157.84;4516672;28;21070;-61
2023/07/18 00:23:06;;;;;;;0.43;0.40;;;;;;;24.15;41.10;101158.69;4517337;28;20025;-62
2023/07/18 00:25:19;;;;;;;0.80;0.40;;;;;;;24.16;41.35;101155.44;4518301;28;20033;-62
2023/07/18 00:27:29;;;;;;;1.50;0.35;;;;;;;24.14;41.30;101157.00;4517350;28;20041;-61
2023/07/18 00:29:39;;;;;;;0.90;0.57;;;;;;;24.13;41.25;101156.19;4516688;28;20083;-61
2023/07/18 00:31:50;;;;;;;0.68;0.43;;;;;;;24.15;41.43;101156.63;4516319;28;20049;-61
2023/07/18 00:34:02;;;;;;;0.70;0.60;;;;;;;24.13;41.28;101156.19;4516413;28;20383;-61
2023/07/18 00:36:13;;;;;;;1.00;0.52;;;;;;;24.15;41.36;101156.63;4516929;28;20053;-61
2023/07/18 00:38:23;;;;;;;0.47;0.40;;;;;;;24.14;40.86;101146.31;4517630;28;20634;-61
2023/07/18 00:40:34;;;;;;;0.65;0.40;;;;;;;24.10;39.94;101138.81;4517933;28;20053;-61
2023/07/18 00:42:47;;;;;;;0.55;0.50;;;;;;;24.13;41.11;101146.69;4518429;28;20402;-61
2023/07/18 00:44:58;;;;;;;0.75;0.50;;;;;;;24.12;40.95;101142.97;4517368;28;20068;-61
2023/07/18 00:47:08;;;;;;;0.63;0.50;;;;;;;24.11;40.70;101144.19;4515205;28;20144;-61
2023/07/18 00:49:20;;;;;;;0.60;0.40;;;;;;;24.08;40.86;101142.06;4515606;28;21149;-61
2023/07/18 00:51:31;;;;;;;0.52;0.50;;;;;;;24.11;40.91;101149.94;4517405;28;20120;-62
2023/07/18 00:53:42;;;;;;;0.60;0.50;;;;;;;24.12;40.84;101154.50;4516501;28;20025;-61
2023/07/18 00:55:54;;;;;;;0.40;0.40;;;;;;;24.10;41.07;101150.34;4519244;28;20038;-61
2023/07/18 00:58:04;;;;;;;0.80;0.45;;;;;;;24.10;40.92;101148.25;4516828;28;20037;-62
2023/07/18 01:00:16;;;;;;;0.40;0.40;;;;;;;24.10;41.09;101142.50;4516975;28;20037;-61
2023/07/18 01:02:28;;;;;;;0.85;0.60;;;;;;;24.00;40.83;101128.69;4516185;28;20703;-61
2023/07/18 01:04:41;;;;;;;0.82;0.60;;;;;;;24.08;40.77;101136.28;4516477;28;20105;-61
2023/07/18 01:06:52;;;;;;;0.45;0.40;;;;;;;24.07;40.84;101137.50;4516134;28;20055;-61
2023/07/18 01:09:04;;;;;;;0.57;0.50;;;;;;;24.09;40.69;101143.72;4516717;28;20658;-62
2023/07/18 01:11:14;;;;;;;0.43;0.40;;;;;;;24.08;40.53;101139.19;4515305;28;20033;-61
2023/07/18 01:13:24;;;;;;;0.40;0.40;;;;;;;24.06;40.09;101132.09;4516914;28;20045;-61
2023/07/18 01:15:35;;;;;;;0.50;0.50;;;;;;;24.07;40.53;101133.78;4517128;28;20021;-61
2023/07/18 01:17:45;;;;;;;0.40;0.40;;;;;;;24.07;40.86;101137.50;4515884;28;20075;-61
2023/07/18 01:19:57;;;;;;;0.57;0.43;;;;;;;24.08;40.69;101144.09;4516462;28;20028;-62
2023/07/18 01:22:08;;;;;;;0.30;0.30;;;;;;;24.07;40.83;101146.13;4514416;28;20596;-61
2023/07/18 01:24:18;;;;;;;0.60;0.50;;;;;;;24.05;40.85;101141.97;4513616;28;20034;-61
2023/07/18 01:26:29;;;;;;;0.73;0.45;;;;;;;24.07;40.49;101146.13;4515918;28;20046;-62
2023/07/18 01:28:40;;;;;;;0.60;0.60;;;;;;;24.04;40.63;101144.00;4514314;28;20120;-61
2023/07/18 01:30:50;;;;;;;0.77;0.45;;;;;;;24.07;40.87;101142.44;4515725;28;20112;-62
2023/07/18 01:33:01;;;;;;;0.98;0.40;;;;;;;24.05;40.77;101142.81;4515380;28;20592;-61
2023/07/18 01:35:11;;;;;;;0.90;0.52;;;;;;;24.06;40.33;101138.72;4516663;28;20065;-61
2023/07/18 01:37:22;;;;;;;0.80;0.50;;;;;;;24.03;40.58;101136.59;4516718;28;20048;-62
2023/07/18 01:39:32;;;;;;;0.40;0.40;;;;;;;24.06;40.74;101149.41;4516023;28;20041;-62
2023/07/18 01:41:42;;;;;;;0.55;0.40;;;;;;;24.05;40.71;101142.81;4516071;28;20060;-62
2023/07/18 01:43:53;;;;;;;0.95;0.52;;;;;;;24.02;40.44;101140.69;4514458;28;20052;-61
2023/07/18 01:46:03;;;;;;;1.40;0.60;;;;;;;24.02;40.53;101129.16;4517057;28;20022;-61
2023/07/18 01:48:14;;;;;;;0.40;0.40;;;;;;;24.05;40.50;101139.09;4519115;28;20033;-61
2023/07/18 01:50:25;;;;;;;0.50;0.50;;;;;;;24.00;40.33;101131.56;4519971;28;20033;-61
2023/07/18 01:52:37;;;;;;;0.75;0.50;;;;;;;24.02;40.36;101140.69;4518676;28;20153;-61
2023/07/18 01:54:48;;;;;;;0.70;0.50;;;;;;;24.01;40.43;101139.00;4517831;28;20041;-61
2023/07/18 01:56:58;;;;;;;0.50;0.50;;;;;;;24.02;40.38;101149.34;4535222;28;20033;-61
2023/07/18 01:59:08;;;;;;;0.65;0.50;;;;;;;24.03;40.58;101144.41;4519033;28;20089;-61
2023/07/18 02:01:19;;;;;;;0.40;0.40;;;;;;;23.99;40.54;101137.72;4518295;28;20434;-61
2023/07/18 02:03:29;;;;;;;1.13;0.60;;;;;;;24.03;40.54;101135.75;4519529;28;20034;-61
2023/07/18 02:05:40;;;;;;;1.17;0.55;;;;;;;23.99;40.13;101126.19;4520461;28;20631;-61
2023/07/18 02:07:52;;;;;;;0.50;0.47;;;;;;;24.00;40.64;101131.56;4507377;28;20537;-60
2023/07/18 02:10:02;;;;;;;1.02;0.60;;;;;;;23.98;40.39;101125.34;4519553;28;20037;-60
2023/07/18 02:12:13;;;;;;;0.65;0.50;;;;;;;24.00;40.28;101127.84;4518609;28;20053;-61
2023/07/18 02:14:23;;;;;;;1.42;0.50;;;;;;;23.99;40.32;101137.72;4523043;28;20030;-60
2023/07/18 02:16:34;;;;;;;0.80;0.50;;;;;;;23.95;40.32;101126.06;4518063;28;20041;-61
2023/07/18 02:18:44;;;;;;;0.52;0.50;;;;;;;23.93;39.82;101121.91;4519002;28;20041;-61
2023/07/18 02:20:55;;;;;;;0.40;0.40;;;;;;;24.00;40.07;101131.56;4519385;28;20038;-61
2023/07/18 02:23:05;;;;;;;1.38;0.60;;;;;;;23.95;40.26;101123.19;4516318;28;20056;-61
2023/07/18 02:25:17;;;;;;;0.70;0.50;;;;;;;23.94;39.89;101121.53;4517878;28;20041;-62
2023/07/18 02:27:27;;;;;;;0.90;0.60;;;;;;;23.99;39.66;101132.78;4519017;28;20025;-61
2023/07/18 02:29:38;;;;;;;0.65;0.60;;;;;;;23.97;40.00;101126.56;4516745;28;20037;-61
2023/07/18 02:31:49;;;;;;;0.93;0.50;;;;;;;23.96;39.96;101127.72;4519535;28;20131;-61
2023/07/18 02:33:59;;;;;;;0.70;0.60;;;;;;;23.99;39.93;101127.00;4518725;28;20599;-61
2023/07/18 02:36:11;;;;;;;0.50;0.50;;;;;;;23.97;40.29;101125.72;4520122;28;20052;-61
2023/07/18 02:38:22;;;;;;;0.75;0.55;;;;;;;23.84;40.02;101104.81;4518646;28;20033;-61
2023/07/18 02:40:35;;;;;;;0.47;0.43;;;;;;;23.95;40.15;101126.06;4500182;28;20038;-60
2023/07/18 02:42:48;;;;;;;0.85;0.50;;;;;;;23.92;39.97;101126.81;4518049;28;20812;-60
2023/07/18 02:44:58;;;;;;;0.52;0.40;;;;;;;23.97;40.06;101137.25;4518833;28;20195;-61
2023/07/18 02:47:09;;;;;;;0.40;0.30;;;;;;;23.96;39.96;101133.50;4519184;28;20092;-61
2023/07/18 02:49:19;;;;;;;0.50;0.50;;;;;;;23.97;40.25;101134.38;4518475;28;20504;-59
2023/07/18 02:51:30;;;;;;;0.75;0.60;;;;;;;23.95;40.09;101137.59;4498819;28;20502;-61
2023/07/18 02:53:40;;;;;;;0.80;0.43;;;;;;;23.96;40.09;101139.25;4518035;28;20045;-61
2023/07/18 02:55:51;;;;;;;1.02;0.60;;;;;;;23.95;39.88;101131.84;4534100;28;20251;-61
2023/07/18 02:58:02;;;;;;;1.10;0.63;;;;;;;23.93;39.40;101127.69;4516237;28;20812;-61
2023/07/18 03:00:25;;;;;;;0.68;0.50;;;;;;;23.97;39.76;101132.34;4517647;28;20044;-61
2023/07/18 03:02:37;;;;;;;0.52;0.52;;;;;;;23.94;39.61;101124.41;4517869;28;20884;-61
2023/07/18 03:04:48;;;;;;;0.50;0.47;;;;;;;23.95;39.64;101114.53;4516794;28;20048;-61
2023/07/18 03:07:00;;;;;;;1.08;0.60;;;;;;;23.96;39.93;101121.97;4517423;28;20354;-61
2023/07/18 03:09:10;;;;;;;0.50;0.50;;;;;;;23.93;39.75;101121.91;4506458;28;20037;-61
2023/07/18 03:11:21;;;;;;;0.70;0.60;;;;;;;23.93;39.55;101121.91;4516851;28;20041;-61
2023/07/18 03:13:31;;;;;;;0.50;0.40;;;;;;;23.95;39.86;101137.59;4513807;28;20033;-61
2023/07/18 03:15:42;;;;;;;0.90;0.68;;;;;;;23.87;39.66;101118.47;4517393;28;20480;-61
2023/07/18 03:17:52;;;;;;;0.93;0.50;;;;;;;23.89;39.62;101116.06;4518840;28;20030;-61
2023/07/18 03:20:13;;;;;;;1.10;0.60;;;;;;;23.90;39.68;101123.47;4517844;28;20033;-61
2023/07/18 03:22:23;;;;;;;0.40;0.40;;;;;;;23.92;39.58;101126.81;4507206;28;20064;-61
2023/07/18 03:24:35;;;;;;;0.70;0.47;;;;;;;23.93;39.30;101122.72;4518039;28;20548;-62
2023/07/18 03:26:46;;;;;;;0.60;0.50;;;;;;;23.90;39.89;101119.75;4516196;28;20017;-61
2023/07/18 03:28:56;;;;;;;1.25;0.50;;;;;;;23.92;39.72;101125.97;4514029;28;20065;-61
2023/07/18 03:31:08;;;;;;;4.00;0.70;;;;;;;23.91;39.79;101119.41;4516205;28;20099;-61
2023/07/18 03:33:19;;;;;;;1.20;0.60;;;;;;;23.90;39.64;101120.59;4516372;28;20462;-60
2023/07/18 03:35:29;;;;;;;0.63;0.57;;;;;;;23.89;39.53;101116.06;4518911;28;20034;-61
2023/07/18 03:37:42;;;;;;;0.70;0.60;;;;;;;23.92;39.47;101121.06;4518204;28;20041;-61
2023/07/18 03:39:53;;;;;;;0.65;0.65;;;;;;;23.88;39.45;101108.59;4517063;28;20083;-61
2023/07/18 03:42:03;;;;;;;0.50;0.50;;;;;;;23.88;39.52;101114.38;4518459;28;20690;-61
2023/07/18 03:44:14;;;;;;;0.90;0.60;;;;;;;23.88;39.49;101120.13;4518866;28;20770;-61
2023/07/18 03:46:25;;;;;;;0.60;0.60;;;;;;;23.91;39.78;101119.41;4517564;28;20506;-61
2023/07/18 03:48:37;;;;;;;0.68;0.40;;;;;;;23.85;39.70;101114.31;4516707;28;20029;-61
2023/07/18 03:50:47;;;;;;;0.60;0.60;;;;;;;23.87;39.36;101108.97;4516143;28;20116;-61
2023/07/18 03:52:58;;;;;;;0.80;0.40;;;;;;;23.87;39.68;101112.72;4517179;28;20123;-61
2023/07/18 03:55:08;;;;;;;1.63;0.60;;;;;;;23.88;39.76;101114.38;4518232;28;20184;-61
2023/07/18 03:57:19;;;;;;;0.60;0.50;;;;;;;23.89;39.80;101110.28;4518858;28;20076;-63
2023/07/18 03:59:30;;;;;;;0.60;0.50;;;;;;;23.90;39.53;101105.34;4516900;28;20061;-62
2023/07/18 04:01:40;;;;;;;1.58;0.55;;;;;;;23.85;39.64;101097.81;4516530;28;20026;-61
2023/07/18 04:03:51;;;;;;;1.08;0.50;;;;;;;23.85;39.93;101105.66;4517256;28;20412;-61
2023/07/18 04:06:02;;;;;;;0.50;0.50;;;;;;;23.87;39.62;101104.06;4517380;28;20036;-61
2023/07/18 04:08:12;;;;;;;1.15;0.40;;;;;;;23.86;39.97;101105.28;4516635;28;20799;-61
2023/07/18 04:10:22;;;;;;;0.60;0.50;;;;;;;23.85;39.66;101097.81;4515490;28;20029;-61
2023/07/18 04:12:33;;;;;;;0.40;0.40;;;;;;;23.86;39.68;101099.50;4505963;28;20538;-61
2023/07/18 04:14:43;;;;;;;0.80;0.60;;;;;;;23.83;39.58;101100.28;4516501;28;20044;-61
2023/07/18 04:16:54;;;;;;;1.17;0.50;;;;;;;23.84;39.94;101103.97;4516517;28;20120;-61
2023/07/18 04:19:05;;;;;;;1.38;0.43;;;;;;;23.86;39.73;101102.41;4517265;28;20037;-61
2023/07/18 04:21:15;;;;;;;0.60;0.40;;;;;;;23.86;40.23;101113.94;4517755;28;20132;-61
2023/07/18 04:23:25;;;;;;;0.80;0.50;;;;;;;23.84;39.93;101106.84;4517759;28;20494;-62
2023/07/18 04:25:54;;;;;;;0.70;0.40;;;;;;;23.87;40.05;101114.75;4516647;28;20032;-61
2023/07/18 04:28:05;;;;;;;1.15;0.40;;;;;;;23.84;39.90;101112.63;4517082;28;20040;-61
2023/07/18 04:30:15;;;;;;;1.13;0.50;;;;;;;23.80;40.08;101105.94;4517596;28;20099;-63
2023/07/18 04:32:25;;;;;;;0.93;0.40;;;;;;;23.82;39.94;101104.34;4517016;28;20057;-61
2023/07/18 04:34:36;;;;;;;0.43;0.40;;;;;;;23.83;39.88;101103.16;4516803;28;20029;-61
2023/07/18 04:36:46;;;;;;;1.23;0.63;;;;;;;23.84;40.11;101098.19;4515833;28;20806;-61
2023/07/18 04:38:57;;;;;;;0.40;0.40;;;;;;;23.82;40.14;101104.34;4515949;28;20088;-62
2023/07/18 04:41:08;;;;;;;0.90;0.50;;;;;;;23.85;40.14;101102.78;4517459;28;20083;-64
2023/07/18 04:43:19;;;;;;;0.68;0.52;;;;;;;23.78;40.10;101091.06;4517968;28;20068;-61
2023/07/18 04:45:30;;;;;;;1.90;0.40;;;;;;;23.82;40.43;101104.34;4516603;28;21356;-61
2023/07/18 04:47:40;;;;;;;0.60;0.50;;;;;;;23.83;40.32;101099.44;4516891;28;20436;-60
2023/07/18 04:49:51;;;;;;;0.40;0.40;;;;;;;23.82;40.27;101103.53;4517462;28;20034;-61
2023/07/18 04:52:03;;;;;;;0.90;0.50;;;;;;;23.81;40.70;101105.56;4517655;28;20045;-61
2023/07/18 04:54:13;;;;;;;2.15;0.50;;;;;;;23.81;40.51;101107.59;4516873;28;20083;-61
2023/07/18 04:56:23;;;;;;;0.70;0.50;;;;;;;23.79;40.49;101098.50;4517173;28;20084;-63
2023/07/18 04:58:34;;;;;;;2.35;0.65;;;;;;;23.82;40.57;101104.34;4514775;28;20514;-61
2023/07/18 05:00:45;;;;;;;1.20;0.50;;;;;;;23.81;41.07;101102.69;4515336;28;20132;-61
2023/07/18 05:02:55;;;;;;;0.88;0.40;;;;;;;23.78;40.87;101094.81;4517157;28;20041;-61
2023/07/18 05:05:06;;;;;;;0.82;0.50;;;;;;;23.80;40.74;101094.41;4517417;28;20226;-62
2023/07/18 05:07:17;;;;;;;0.50;0.40;;;;;;;23.80;41.00;101101.00;4516993;28;20132;-61
2023/07/18 05:09:28;;;;;;;0.57;0.50;;;;;;;23.81;41.15;101101.84;4516408;28;20025;-61
2023/07/18 05:11:38;;;;;;;0.73;0.60;;;;;;;23.80;41.26;101098.13;4518328;28;20280;-61
2023/07/18 05:13:48;;;;;;;2.30;0.68;;;;;;;23.78;41.62;101097.69;4516874;28;20390;-61
2023/07/18 05:16:00;;;;;;;0.60;0.43;;;;;;;23.74;41.47;101095.94;4517639;28;20045;-61
2023/07/18 05:18:11;;;;;;;0.73;0.57;;;;;;;23.80;41.51;101100.19;4517285;28;20037;-61
2023/07/18 05:20:21;;;;;;;0.95;0.50;;;;;;;23.81;41.96;101094.03;4516492;28;20139;-61
2023/07/18 05:22:32;;;;;;;0.88;0.60;;;;;;;23.80;42.40;101095.22;4519470;28;20053;-61
2023/07/18 05:24:42;;;;;;;0.63;0.40;;;;;;;23.76;42.70;101102.97;4520912;28;20108;-63
2023/07/18 05:26:53;;;;;;;0.65;0.38;;;;;;;23.79;42.76;101104.25;4519380;28;20034;-61
2023/07/18 05:29:04;;;;;;;1.02;0.50;;;;;;;23.80;42.38;101105.94;4520605;28;20053;-61
2023/07/18 05:31:15;;;;;;;0.75;0.50;;;;;;;23.78;43.01;101100.56;4520214;28;20038;-61
2023/07/18 05:33:26;;;;;;;1.05;0.50;;;;;;;23.79;43.18;101099.34;4520820;28;20037;-61
2023/07/18 05:35:36;;;;;;;1.75;0.75;;;;;;;23.79;43.13;101098.50;4518772;28;20026;-61
2023/07/18 05:37:46;;;;;;;0.57;0.50;;;;;;;23.80;43.60;101112.53;4520363;28;20075;-61
2023/07/18 05:39:57;;;;;;;0.80;0.47;;;;;;;23.67;43.45;101079.31;4520857;28;20022;-61
2023/07/18 05:42:07;;;;;;;1.20;0.50;;;;;;;23.80;43.52;101103.88;4520595;28;20552;-61
2023/07/18 05:44:18;;;;;;;0.40;0.40;;;;;;;23.78;43.78;101099.72;4521033;28;20048;-61
2023/07/18 05:46:28;;;;;;;0.98;0.50;;;;;;;23.78;44.02;101103.44;4520965;28;20565;-61
2023/07/18 05:48:39;;;;;;;2.05;0.70;;;;;;;23.81;43.94;101114.22;4518507;28;20041;-61
2023/07/18 05:50:49;;;;;;;1.13;0.50;;;;;;;23.80;43.90;101106.75;4519225;28;20755;-61
2023/07/18 05:53:00;;;;;;;0.40;0.30;;;;;;;23.80;44.41;101106.75;4501558;28;20053;-61
2023/07/18 05:55:12;;;;;;;0.95;0.47;;;;;;;23.80;44.31;101105.94;4519443;28;20596;-61
2023/07/18 05:57:23;;;;;;;0.90;0.60;;;;;;;23.81;44.53;101111.34;4518969;28;20859;-61
2023/07/18 05:59:34;;;;;;;0.55;0.50;;;;;;;23.79;44.55;101107.16;4520940;28;20081;-61
2023/07/18 06:01:45;;;;;;;0.65;0.40;;;;;;;23.79;44.95;101105.09;4520640;28;20425;-61
2023/07/18 06:03:57;;;;;;;0.73;0.40;;;;;;;23.79;45.02;101101.38;4520718;28;20102;-60
2023/07/18 06:06:07;;;;;;;0.65;0.40;;;;;;;23.79;45.31;101105.09;4519892;28;20036;-61
2023/07/18 06:08:18;;;;;;;0.73;0.40;;;;;;;23.82;45.37;101110.13;4520390;28;20044;-61
2023/07/18 06:10:28;;;;;;;1.45;0.50;;;;;;;23.78;45.41;101097.69;4520057;28;20041;-61
2023/07/18 06:12:39;;;;;;;1.48;0.70;;;;;;;23.75;45.80;101098.44;4519406;28;20045;-61
2023/07/18 06:14:49;;;;;;;0.38;0.38;;;;;;;23.80;46.06;101103.88;4518877;28;20521;-62
2023/07/18 06:17:01;;;;;;;1.52;0.50;;;;;;;23.82;45.89;101115.88;4519669;28;20029;-61
2023/07/18 06:19:12;;;;;;;1.20;0.50;;;;;;;23.78;46.44;101100.56;4519183;28;20044;-61
2023/07/18 06:21:26;;;;;;;0.45;0.30;;;;;;;23.83;46.61;101105.19;4518870;28;20040;-62
2023/07/18 06:23:36;;;;;;;0.85;0.45;;;;;;;23.81;46.41;101108.44;4520552;28;20116;-62
2023/07/18 06:25:47;;;;;;;1.63;0.60;;;;;;;23.77;46.55;101104.63;4517187;28;20096;-61
2023/07/18 06:27:57;;;;;;;0.70;0.55;;;;;;;23.73;47.48;101100.84;4520163;28;20091;-61
2023/07/18 06:30:08;;;;;;;0.98;0.65;;;;;;;23.73;47.56;101100.84;4500983;28;20050;-62
2023/07/18 06:32:19;;;;;;;1.05;0.70;;;;;;;23.67;47.28;101098.63;4519419;28;20528;-62
2023/07/18 06:34:30;;;;;;;0.88;0.50;;;;;;;23.67;46.86;101097.41;4519522;28;20021;-62
2023/07/18 06:36:40;;;;;;;0.50;0.40;;;;;;;23.66;47.68;101103.56;4519410;28;20053;-61
2023/07/18 06:38:51;;;;;;;0.90;0.60;;;;;;;23.67;47.82;101108.13;4520030;28;20032;-61
2023/07/18 06:41:01;;;;;;;0.70;0.70;;;;;;;23.65;47.42;101101.91;4518337;28;20532;-61
2023/07/18 06:43:12;;;;;;;0.50;0.40;;;;;;;23.65;47.89;101110.53;4518706;28;20610;-61
2023/07/18 06:45:24;;;;;;;1.05;0.40;;;;;;;23.63;48.45;101107.19;4519370;28;20044;-62
2023/07/18 06:47:35;;;;;;;0.68;0.60;;;;;;;23.63;47.54;101110.06;4518528;28;20587;-62
2023/07/18 06:49:45;;;;;;;0.63;0.40;;;;;;;23.63;47.68;101107.19;4518195;28;20034;-62
2023/07/18 06:51:55;;;;;;;0.40;0.40;;;;;;;23.56;47.89;101095.50;4518751;28;20029;-62
2023/07/18 06:54:06;;;;;;;0.80;0.50;;;;;;;23.55;48.25;101099.59;4518175;28;20072;-62
2023/07/18 06:56:16;;;;;;;0.63;0.50;;;;;;;23.61;48.13;101101.81;4517484;28;20068;-62
2023/07/18 06:58:27;;;;;;;0.68;0.55;;;;;;;23.58;47.70;101096.81;4518322;28;20042;-62
2023/07/18 07:00:38;;;;;;;0.60;0.40;;;;;;;23.59;47.56;101103.41;4518081;28;20832;-61
2023/07/18 07:02:49;;;;;;;0.55;0.40;;;;;;;23.52;47.57;101092.53;4518507;28;20049;-61
2023/07/18 07:05:00;;;;;;;0.70;0.50;;;;;;;23.48;47.63;101082.16;4517853;28;20109;-62
2023/07/18 07:07:10;;;;;;;1.15;0.50;;;;;;;23.54;47.54;101104.53;4518510;28;20127;-63
2023/07/18 07:09:21;;;;;;;1.08;0.60;;;;;;;23.53;47.88;101094.19;4519519;28;20053;-63
2023/07/18 07:11:31;;;;;;;0.90;0.50;;;;;;;23.50;47.45;101085.47;4519406;28;20045;-62
2023/07/18 07:13:42;;;;;;;1.08;0.50;;;;;;;23.54;47.64;101097.94;4519054;28;20087;-63
2023/07/18 07:15:52;;;;;;;0.50;0.50;;;;;;;23.50;47.05;101088.34;4517689;28;20152;-63
2023/07/18 07:18:03;;;;;;;0.90;0.50;;;;;;;23.51;46.79;101084.28;4517812;28;20038;-63
2023/07/18 07:20:14;;;;;;;0.50;0.50;;;;;;;23.50;47.17;101085.47;4517326;28;20678;-69
2023/07/18 07:22:24;;;;;;;0.47;0.40;;;;;;;23.50;47.14;101079.72;4517359;28;20130;-62
2023/07/18 07:24:35;;;;;;;0.40;0.40;;;;;;;23.51;47.44;101088.00;4516459;28;20036;-61
2023/07/18 07:26:45;;;;;;;0.57;0.50;;;;;;;23.56;47.54;101089.75;4507308;28;20587;-61
2023/07/18 07:28:56;;;;;;;0.82;0.40;;;;;;;23.56;47.55;101087.69;4520358;28;20021;-61
2023/07/18 07:31:06;;;;;;;0.77;0.50;;;;;;;23.54;48.21;101077.75;4532868;28;20036;-61
2023/07/18 07:33:18;;;;;;;0.65;0.50;;;;;;;23.58;47.25;101082.38;4517312;28;20081;-61
2023/07/18 07:35:29;;;;;;;0.35;0.30;;;;;;;23.59;47.23;101077.47;4518050;28;20030;-62
2023/07/18 07:37:40;;;;;;;0.60;0.50;;;;;;;23.55;47.79;101073.66;4516693;28;20140;-61
2023/07/18 07:39:51;;;;;;;0.52;0.50;;;;;;;23.59;47.27;101071.72;4518623;28;20037;-60
2023/07/18 07:42:01;;;;;;;0.90;0.60;;;;;;;23.58;47.49;101070.00;4518907;28;20030;-61
2023/07/18 07:44:11;;;;;;;0.63;0.50;;;;;;;23.60;47.09;101073.38;4517117;28;20036;-61
2023/07/18 07:46:22;;;;;;;1.13;0.60;;;;;;;23.59;47.26;101071.72;4517202;28;20032;-61
2023/07/18 07:48:32;;;;;;;0.75;0.50;;;;;;;23.60;47.15;101074.22;4516923;28;20037;-61
2023/07/18 07:50:43;;;;;;;0.60;0.55;;;;;;;23.62;48.07;101068.06;4516632;28;20504;-61
2023/07/18 07:52:54;;;;;;;0.77;0.57;;;;;;;23.61;48.34;101066.38;4490316;28;20038;-61
2023/07/18 07:55:06;;;;;;;0.77;0.60;;;;;;;23.60;47.82;101056.91;4516188;28;20029;-61
2023/07/18 07:57:16;;;;;;;1.08;0.60;;;;;;;23.61;47.51;101063.50;4505605;28;21349;-61
2023/07/18 07:59:27;;;;;;;1.40;0.60;;;;;;;23.60;47.18;101056.06;4515517;28;20104;-62
2023/07/18 08:01:38;;;;;;;1.20;0.70;;;;;;;23.61;47.69;101060.63;4516241;28;20046;-61
2023/07/18 08:03:49;;;;;;;1.48;0.57;;;;;;;23.62;47.83;101053.66;4516514;28;20037;-61
2023/07/18 08:06:00;;;;;;;0.88;0.55;;;;;;;23.63;47.94;101058.19;4517408;28;20058;-61
2023/07/18 08:08:11;;;;;;;0.93;0.60;;;;;;;23.46;48.72;101024.91;4516574;28;20033;-61
2023/07/18 08:10:21;;;;;;;0.80;0.70;;;;;;;23.59;48.27;101049.47;4516938;28;20041;-60
2023/07/18 08:12:32;;;;;;;1.70;0.88;;;;;;;23.62;47.24;101053.66;4516688;28;20049;-61
2023/07/18 08:14:43;;;;;;;2.05;0.85;;;;;;;23.60;46.62;101045.41;4517356;28;20029;-61
2023/07/18 08:16:53;;;;;;;1.48;0.95;;;;;;;23.51;46.84;101023.78;4516717;28;20561;-61
2023/07/18 08:19:04;;;;;;;1.10;0.70;;;;;;;23.63;46.27;101040.09;4517573;28;20021;-62
2023/07/18 08:21:14;;;;;;;1.10;0.80;;;;;;;23.64;47.36;101045.47;4517299;28;20041;-61
2023/07/18 08:23:25;;;;;;;1.17;0.70;;;;;;;23.63;47.60;101043.78;4517298;28;20647;-61
2023/07/18 08:25:35;;;;;;;1.25;0.70;;;;;;;23.63;47.44;101029.38;4516773;28;20041;-63
2023/07/18 08:27:45;;;;;;;0.80;0.60;;;;;;;23.57;46.80;101031.75;4518195;28;20072;-61
2023/07/18 08:29:56;;;;;;;0.80;0.80;;;;;;;23.62;45.84;101042.13;4515984;28;20025;-61
2023/07/18 08:32:06;;;;;;;1.15;0.80;;;;;;;23.63;46.35;101035.16;4516041;28;20037;-62
2023/07/18 08:34:17;;;;;;;1.17;0.70;;;;;;;23.64;45.95;101033.97;4517883;28;20041;-62
2023/07/18 08:36:29;;;;;;;1.25;0.60;;;;;;;23.59;45.90;101022.72;4517996;28;20113;-61
2023/07/18 08:38:39;;;;;;;1.42;0.63;;;;;;;23.62;45.61;101030.59;4517573;28;20037;-61
2023/07/18 08:40:50;;;;;;;0.70;0.60;;;;;;;23.60;45.29;101021.50;4517710;28;20705;-62
2023/07/18 08:43:00;;;;;;;1.00;0.70;;;;;;;23.62;44.98;101019.06;4518474;28;20056;-61
2023/07/18 08:45:14;;;;;;;1.17;0.90;;;;;;;23.62;45.20;101021.97;4518380;28;20327;-61
2023/07/18 08:47:25;;;;;;;0.70;0.65;;;;;;;23.60;45.39;101018.63;4517259;28;20888;-61
2023/07/18 08:49:39;;;;;;;0.60;0.60;;;;;;;23.62;44.82;101019.06;4517517;28;20052;-66
2023/07/18 08:51:50;;;;;;;0.80;0.70;;;;;;;23.63;44.48;101014.97;4516778;28;20041;-61
2023/07/18 08:54:00;;;;;;;0.90;0.70;;;;;;;23.62;44.39;101007.56;4518132;28;20037;-60
2023/07/18 08:56:11;;;;;;;0.80;0.60;;;;;;;23.63;45.16;101005.50;4516426;28;20540;-61
2023/07/18 08:58:22;;;;;;;0.65;0.65;;;;;;;23.58;43.70;100995.09;4517200;28;20890;-61
2023/07/18 09:00:32;;;;;;;0.70;0.70;;;;;;;23.62;44.11;101001.78;4516158;28;21255;-61
2023/07/18 09:02:44;;;;;;;1.65;0.80;;;;;;;23.64;43.88;101000.19;4516982;28;20017;-60
2023/07/18 09:04:54;;;;;;;0.60;0.60;;;;;;;23.63;43.35;100994.00;4517548;28;20425;-60
2023/07/18 09:07:04;;;;;;;1.08;0.70;;;;;;;23.61;44.18;100989.41;4516351;28;20024;-60
2023/07/18 09:09:21;;;;;;;1.25;0.70;;;;;;;23.64;43.72;100990.72;4516564;28;20044;-60
2023/07/18 09:11:31;;;;;;;1.05;0.70;;;;;;;23.51;43.56;100964.09;4516832;28;20124;-61
2023/07/18 09:13:42;;;;;;;0.60;0.60;;;;;;;23.53;42.97;100969.50;4515278;28;20034;-61
2023/07/18 09:15:52;;;;;;;1.05;0.55;;;;;;;23.61;42.72;100982.81;4515168;28;20036;-61
2023/07/18 09:18:05;;;;;;;0.85;0.60;;;;;;;23.61;41.91;100977.03;4514654;28;20052;-61
2023/07/18 09:20:17;;;;;;;0.95;0.52;;;;;;;23.55;41.48;100962.13;4516506;28;20116;-60
2023/07/18 09:22:28;;;;;;;0.60;0.45;;;;;;;23.58;42.48;100967.13;4517103;28;20484;-61
2023/07/18 09:24:41;;;;;;;0.82;0.60;;;;;;;23.63;41.65;100977.50;4517246;28;20029;-61
2023/07/18 09:26:55;;;;;;;0.57;0.52;;;;;;;23.63;41.72;100973.81;4516208;28;20034;-59
2023/07/18 09:29:10;;;;;;;0.50;0.50;;;;;;;23.61;41.96;100966.38;4515175;28;20322;-60
2023/07/18 09:31:23;;;;;;;0.40;0.40;;;;;;;23.59;42.23;100956.44;4515971;28;20061;-61
2023/07/18 09:33:36;;;;;;;0.60;0.47;;;;;;;23.61;41.91;100965.50;4516154;28;20033;-61
2023/07/18 09:35:47;;;;;;;0.50;0.43;;;;;;;23.57;41.45;100955.97;4515624;28;20095;-61
2023/07/18 09:37:58;;;;;;;0.60;0.50;;;;;;;23.63;41.43;100974.63;4515167;28;20141;-61
2023/07/18 09:40:10;;;;;;;0.60;0.57;;;;;;;23.62;41.30;100967.22;4515331;28;20290;-61
2023/07/18 09:42:22;;;;;;;0.40;0.40;;;;;;;23.63;40.85;100974.63;4515112;28;20393;-61
2023/07/18 09:44:33;;;;;;;0.40;0.30;;;;;;;23.61;41.08;100965.50;4515534;28;20041;-61
2023/07/18 09:46:44;;;;;;;0.57;0.57;;;;;;;23.61;41.04;100960.59;4515165;28;20034;-60
2023/07/18 09:48:55;;;;;;;1.05;0.52;;;;;;;23.48;41.20;100938.09;4515151;28;20068;-61
2023/07/18 09:51:26;;;;;;;0.65;0.50;;;;;;;23.57;42.03;100947.34;4514844;28;20219;-60
2023/07/18 09:53:43;;;;;;;1.15;0.50;;;;;;;23.65;42.09;100960.69;4515777;28;20872;-61
2023/07/18 09:55:56;;;;;;;1.17;0.47;;;;;;;23.64;42.36;100961.91;4516985;28;20033;-61
2023/07/18 09:58:10;;;;;;;0.47;0.35;;;;;;;23.64;41.39;100956.94;4517452;28;20038;-61
2023/07/18 10:00:22;;;;;;;0.88;0.50;;;;;;;23.64;41.68;100950.38;4516117;28;20711;-61
2023/07/18 10:02:35;;;;;;;0.73;0.43;;;;;;;23.63;40.31;100948.69;4515654;28;20042;-61
2023/07/18 10:04:48;;;;;;;0.55;0.50;;;;;;;23.63;40.48;100940.88;4514953;28;20764;-61
2023/07/18 10:06:58;;;;;;;0.60;0.40;;;;;;;23.51;40.52;100914.28;4517008;28;20184;-61
2023/07/18 10:09:09;;;;;;;0.57;0.40;;;;;;;23.66;40.39;100939.28;4520513;28;20117;-61